North Stonington, Connecticut
Current Conditions -  °F | °C
As of 2:53 AM on Monday 22 Dec 2014 (Local Time) from KWST Reporting Station
Overcast Overcast  
Wind Chill: 30°   Ceiling: 4700
Heat Index: 36°   Visibility: 10mi
Dew Point: 32°   Wind: 7mph
Humidity: 86%   Direction: 30°NNE
Pressure: 30.33"   Gusts: NA
Location:  41.44°N, 71.88°W
Report Text: KWST 220753Z AUTO 03006KT 10SM OVC047 02/00 A3033 RMK AO2 SLP270 T00220000
Loading
Personal Weather Stations






























Interactive Weather Map New forecast layout! Learn more

10-Day Weather Forecast

Advertisements
Track Severe Weather on mobile